sensor_id;sensor_type;location;lat;lon;timestamp;P1;durP1;ratioP1;P2;durP2;ratioP2
38940;SDS011;43236;47.208;7.518;2023-02-18T00:02:32;23.10;;;10.95;;
38940;SDS011;43236;47.208;7.518;2023-02-18T00:05:20;19.70;;;10.30;;
38940;SDS011;43236;47.208;7.518;2023-02-18T00:08:09;21.35;;;9.80;;
38940;SDS011;43236;47.208;7.518;2023-02-18T00:10:56;20.77;;;10.07;;
38940;SDS011;43236;47.208;7.518;2023-02-18T00:13:48;18.05;;;9.30;;
38940;SDS011;43236;47.208;7.518;2023-02-18T00:16:40;19.30;;;9.93;;
38940;SDS011;43236;47.208;7.518;2023-02-18T00:19:28;22.67;;;10.00;;
38940;SDS011;43236;47.208;7.518;2023-02-18T00:22:17;19.38;;;9.95;;
38940;SDS011;43236;47.208;7.518;2023-02-18T00:25:06;22.40;;;9.82;;
38940;SDS011;43236;47.208;7.518;2023-02-18T00:27:53;21.77;;;9.93;;
38940;SDS011;43236;47.208;7.518;2023-02-18T00:30:43;19.95;;;10.10;;
38940;SDS011;43236;47.208;7.518;2023-02-18T00:33:34;21.83;;;9.98;;
38940;SDS011;43236;47.208;7.518;2023-02-18T00:36:24;25.52;;;9.38;;
38940;SDS011;43236;47.208;7.518;2023-02-18T00:39:13;19.73;;;9.27;;
38940;SDS011;43236;47.208;7.518;2023-02-18T00:42:01;20.48;;;8.82;;
38940;SDS011;43236;47.208;7.518;2023-02-18T00:44:48;17.23;;;8.73;;
38940;SDS011;43236;47.208;7.518;2023-02-18T00:47:36;16.40;;;8.27;;
38940;SDS011;43236;47.208;7.518;2023-02-18T00:50:26;23.38;;;8.43;;
38940;SDS011;43236;47.208;7.518;2023-02-18T00:53:16;16.00;;;7.70;;
38940;SDS011;43236;47.208;7.518;2023-02-18T00:56:04;16.75;;;8.25;;
38940;SDS011;43236;47.208;7.518;2023-02-18T00:58:52;20.55;;;8.25;;
38940;SDS011;43236;47.208;7.518;2023-02-18T01:01:39;21.65;;;8.82;;
38940;SDS011;43236;47.208;7.518;2023-02-18T01:04:27;19.48;;;7.95;;
38940;SDS011;43236;47.208;7.518;2023-02-18T01:07:16;15.52;;;8.02;;
38940;SDS011;43236;47.208;7.518;2023-02-18T01:10:05;18.20;;;9.13;;
38940;SDS011;43236;47.208;7.518;2023-02-18T01:12:53;18.83;;;8.35;;
38940;SDS011;43236;47.208;7.518;2023-02-18T01:15:41;16.17;;;8.13;;
38940;SDS011;43236;47.208;7.518;2023-02-18T01:18:30;17.67;;;8.77;;
38940;SDS011;43236;47.208;7.518;2023-02-18T01:21:17;17.88;;;8.82;;
38940;SDS011;43236;47.208;7.518;2023-02-18T01:24:06;20.98;;;8.77;;
38940;SDS011;43236;47.208;7.518;2023-02-18T01:26:53;17.60;;;8.18;;
38940;SDS011;43236;47.208;7.518;2023-02-18T01:29:41;20.85;;;8.50;;
38940;SDS011;43236;47.208;7.518;2023-02-18T01:32:28;18.48;;;8.40;;
38940;SDS011;43236;47.208;7.518;2023-02-18T01:35:16;21.27;;;8.65;;
38940;SDS011;43236;47.208;7.518;2023-02-18T01:38:05;20.13;;;9.30;;
38940;SDS011;43236;47.208;7.518;2023-02-18T01:40:54;19.42;;;8.25;;
38940;SDS011;43236;47.208;7.518;2023-02-18T01:43:41;20.88;;;9.30;;
38940;SDS011;43236;47.208;7.518;2023-02-18T01:46:28;20.38;;;8.75;;
38940;SDS011;43236;47.208;7.518;2023-02-18T01:49:17;23.63;;;8.63;;
38940;SDS011;43236;47.208;7.518;2023-02-18T01:52:07;18.08;;;8.13;;
38940;SDS011;43236;47.208;7.518;2023-02-18T01:54:58;15.40;;;7.32;;
38940;SDS011;43236;47.208;7.518;2023-02-18T01:57:47;15.00;;;8.02;;
38940;SDS011;43236;47.208;7.518;2023-02-18T02:00:34;18.27;;;8.15;;
38940;SDS011;43236;47.208;7.518;2023-02-18T02:03:21;17.17;;;7.65;;
38940;SDS011;43236;47.208;7.518;2023-02-18T02:06:13;18.10;;;8.70;;
38940;SDS011;43236;47.208;7.518;2023-02-18T02:09:03;16.23;;;7.32;;
38940;SDS011;43236;47.208;7.518;2023-02-18T02:12:07;16.58;;;7.47;;
38940;SDS011;43236;47.208;7.518;2023-02-18T02:15:22;16.95;;;7.97;;
38940;SDS011;43236;47.208;7.518;2023-02-18T02:18:28;14.02;;;7.63;;
38940;SDS011;43236;47.208;7.518;2023-02-18T02:21:50;16.25;;;8.02;;
38940;SDS011;43236;47.208;7.518;2023-02-18T02:31:45;22.17;;;7.93;;
38940;SDS011;43236;47.208;7.518;2023-02-18T02:34:52;18.20;;;8.05;;
38940;SDS011;43236;47.208;7.518;2023-02-18T02:37:43;13.82;;;6.95;;
38940;SDS011;43236;47.208;7.518;2023-02-18T02:40:35;14.43;;;7.47;;
38940;SDS011;43236;47.208;7.518;2023-02-18T02:43:32;16.35;;;7.70;;
38940;SDS011;43236;47.208;7.518;2023-02-18T02:46:27;15.57;;;6.72;;
38940;SDS011;43236;47.208;7.518;2023-02-18T02:49:30;15.38;;;7.80;;
38940;SDS011;43236;47.208;7.518;2023-02-18T02:52:25;16.00;;;7.25;;
38940;SDS011;43236;47.208;7.518;2023-02-18T02:55:16;16.38;;;7.32;;
38940;SDS011;43236;47.208;7.518;2023-02-18T02:58:03;18.55;;;7.30;;
38940;SDS011;43236;47.208;7.518;2023-02-18T03:01:05;16.42;;;7.60;;
38940;SDS011;43236;47.208;7.518;2023-02-18T03:04:17;17.27;;;8.15;;
38940;SDS011;43236;47.208;7.518;2023-02-18T03:07:18;17.88;;;7.38;;
38940;SDS011;43236;47.208;7.518;2023-02-18T03:10:24;15.73;;;7.05;;
38940;SDS011;43236;47.208;7.518;2023-02-18T03:13:30;14.93;;;7.07;;
38940;SDS011;43236;47.208;7.518;2023-02-18T03:19:21;17.92;;;7.05;;
38940;SDS011;43236;47.208;7.518;2023-02-18T03:22:12;14.50;;;6.60;;
38940;SDS011;43236;47.208;7.518;2023-02-18T03:25:06;12.02;;;7.05;;
38940;SDS011;43236;47.208;7.518;2023-02-18T03:27:56;15.27;;;7.38;;
38940;SDS011;43236;47.208;7.518;2023-02-18T03:30:47;14.70;;;7.00;;
38940;SDS011;43236;47.208;7.518;2023-02-18T03:33:39;15.40;;;7.32;;
38940;SDS011;43236;47.208;7.518;2023-02-18T03:36:30;17.20;;;7.60;;
38940;SDS011;43236;47.208;7.518;2023-02-18T03:39:20;13.80;;;6.35;;
38940;SDS011;43236;47.208;7.518;2023-02-18T03:42:12;19.50;;;7.35;;
38940;SDS011;43236;47.208;7.518;2023-02-18T03:44:59;15.15;;;7.15;;
38940;SDS011;43236;47.208;7.518;2023-02-18T03:47:46;14.55;;;6.55;;
38940;SDS011;43236;47.208;7.518;2023-02-18T03:50:34;14.27;;;7.28;;
38940;SDS011;43236;47.208;7.518;2023-02-18T03:53:21;17.23;;;7.22;;
38940;SDS011;43236;47.208;7.518;2023-02-18T03:56:09;15.30;;;7.10;;
38940;SDS011;43236;47.208;7.518;2023-02-18T03:58:57;13.93;;;6.32;;
38940;SDS011;43236;47.208;7.518;2023-02-18T04:01:45;15.27;;;7.43;;
38940;SDS011;43236;47.208;7.518;2023-02-18T04:04:32;14.13;;;6.60;;
38940;SDS011;43236;47.208;7.518;2023-02-18T04:07:19;13.73;;;7.07;;
38940;SDS011;43236;47.208;7.518;2023-02-18T04:10:06;15.70;;;6.63;;
38940;SDS011;43236;47.208;7.518;2023-02-18T04:12:54;13.35;;;6.32;;
38940;SDS011;43236;47.208;7.518;2023-02-18T04:15:42;12.85;;;6.95;;
38940;SDS011;43236;47.208;7.518;2023-02-18T04:18:30;13.50;;;6.70;;
38940;SDS011;43236;47.208;7.518;2023-02-18T04:21:17;13.40;;;6.72;;
38940;SDS011;43236;47.208;7.518;2023-02-18T04:24:04;15.90;;;7.22;;
38940;SDS011;43236;47.208;7.518;2023-02-18T04:26:52;13.32;;;6.53;;
38940;SDS011;43236;47.208;7.518;2023-02-18T04:29:39;15.18;;;6.75;;
38940;SDS011;43236;47.208;7.518;2023-02-18T04:32:30;12.45;;;6.53;;
38940;SDS011;43236;47.208;7.518;2023-02-18T04:35:20;15.73;;;6.82;;
38940;SDS011;43236;47.208;7.518;2023-02-18T04:38:07;18.35;;;6.68;;
38940;SDS011;43236;47.208;7.518;2023-02-18T04:40:55;13.95;;;6.63;;
38940;SDS011;43236;47.208;7.518;2023-02-18T04:43:44;19.42;;;6.70;;
38940;SDS011;43236;47.208;7.518;2023-02-18T04:46:31;12.55;;;6.32;;
38940;SDS011;43236;47.208;7.518;2023-02-18T04:49:21;14.27;;;6.95;;
38940;SDS011;43236;47.208;7.518;2023-02-18T04:52:08;16.52;;;6.82;;
38940;SDS011;43236;47.208;7.518;2023-02-18T04:54:55;14.68;;;6.97;;
38940;SDS011;43236;47.208;7.518;2023-02-18T04:57:42;11.70;;;5.68;;
38940;SDS011;43236;47.208;7.518;2023-02-18T05:00:31;13.07;;;6.35;;
38940;SDS011;43236;47.208;7.518;2023-02-18T05:03:18;12.63;;;6.68;;
38940;SDS011;43236;47.208;7.518;2023-02-18T05:06:07;14.82;;;6.82;;
38940;SDS011;43236;47.208;7.518;2023-02-18T05:08:54;17.05;;;6.95;;
38940;SDS011;43236;47.208;7.518;2023-02-18T05:11:42;11.77;;;7.13;;
38940;SDS011;43236;47.208;7.518;2023-02-18T05:14:29;13.65;;;7.00;;
38940;SDS011;43236;47.208;7.518;2023-02-18T05:17:16;15.90;;;6.72;;
38940;SDS011;43236;47.208;7.518;2023-02-18T05:20:04;13.10;;;6.97;;
38940;SDS011;43236;47.208;7.518;2023-02-18T05:22:53;18.30;;;6.45;;
38940;SDS011;43236;47.208;7.518;2023-02-18T05:25:40;11.15;;;6.15;;
38940;SDS011;43236;47.208;7.518;2023-02-18T05:28:29;14.45;;;7.03;;
38940;SDS011;43236;47.208;7.518;2023-02-18T05:31:17;12.35;;;6.57;;
38940;SDS011;43236;47.208;7.518;2023-02-18T05:34:04;12.85;;;6.32;;
38940;SDS011;43236;47.208;7.518;2023-02-18T05:36:51;13.25;;;5.82;;
38940;SDS011;43236;47.208;7.518;2023-02-18T05:39:39;11.93;;;6.00;;
38940;SDS011;43236;47.208;7.518;2023-02-18T05:42:27;12.90;;;6.43;;
38940;SDS011;43236;47.208;7.518;2023-02-18T05:45:25;12.32;;;6.30;;
38940;SDS011;43236;47.208;7.518;2023-02-18T05:48:12;13.60;;;6.68;;
38940;SDS011;43236;47.208;7.518;2023-02-18T05:51:00;14.70;;;7.75;;
38940;SDS011;43236;47.208;7.518;2023-02-18T05:53:47;16.90;;;8.20;;
38940;SDS011;43236;47.208;7.518;2023-02-18T05:56:36;15.23;;;7.55;;
38940;SDS011;43236;47.208;7.518;2023-02-18T05:59:24;15.15;;;7.53;;
38940;SDS011;43236;47.208;7.518;2023-02-18T06:02:11;14.88;;;8.25;;
38940;SDS011;43236;47.208;7.518;2023-02-18T06:04:58;14.48;;;7.80;;
38940;SDS011;43236;47.208;7.518;2023-02-18T06:07:46;13.45;;;7.47;;
38940;SDS011;43236;47.208;7.518;2023-02-18T06:10:33;11.82;;;7.38;;
38940;SDS011;43236;47.208;7.518;2023-02-18T06:13:21;13.73;;;7.72;;
38940;SDS011;43236;47.208;7.518;2023-02-18T06:16:08;14.10;;;7.57;;
38940;SDS011;43236;47.208;7.518;2023-02-18T06:19:01;13.68;;;6.70;;
38940;SDS011;43236;47.208;7.518;2023-02-18T06:21:48;14.07;;;7.30;;
38940;SDS011;43236;47.208;7.518;2023-02-18T06:24:35;10.60;;;6.10;;
38940;SDS011;43236;47.208;7.518;2023-02-18T06:27:22;9.50;;;5.85;;
38940;SDS011;43236;47.208;7.518;2023-02-18T06:30:11;13.05;;;5.95;;
38940;SDS011;43236;47.208;7.518;2023-02-18T06:32:58;10.48;;;5.90;;
38940;SDS011;43236;47.208;7.518;2023-02-18T06:35:52;13.30;;;7.05;;
38940;SDS011;43236;47.208;7.518;2023-02-18T06:38:42;13.15;;;7.05;;
38940;SDS011;43236;47.208;7.518;2023-02-18T06:41:30;13.32;;;6.97;;
38940;SDS011;43236;47.208;7.518;2023-02-18T06:44:17;12.68;;;7.13;;
38940;SDS011;43236;47.208;7.518;2023-02-18T06:47:05;16.25;;;8.38;;
38940;SDS011;43236;47.208;7.518;2023-02-18T06:49:52;13.57;;;7.50;;
38940;SDS011;43236;47.208;7.518;2023-02-18T06:52:39;14.02;;;7.38;;
38940;SDS011;43236;47.208;7.518;2023-02-18T06:55:26;14.73;;;7.68;;
38940;SDS011;43236;47.208;7.518;2023-02-18T06:58:13;13.90;;;7.47;;
38940;SDS011;43236;47.208;7.518;2023-02-18T07:01:02;14.90;;;7.60;;
38940;SDS011;43236;47.208;7.518;2023-02-18T07:03:50;13.70;;;7.32;;
38940;SDS011;43236;47.208;7.518;2023-02-18T07:06:37;13.30;;;7.03;;
38940;SDS011;43236;47.208;7.518;2023-02-18T07:09:25;16.83;;;8.32;;
38940;SDS011;43236;47.208;7.518;2023-02-18T07:12:12;15.43;;;8.25;;
38940;SDS011;43236;47.208;7.518;2023-02-18T07:14:59;18.83;;;9.35;;
38940;SDS011;43236;47.208;7.518;2023-02-18T07:17:46;18.52;;;9.50;;
38940;SDS011;43236;47.208;7.518;2023-02-18T07:20:34;20.02;;;9.75;;
38940;SDS011;43236;47.208;7.518;2023-02-18T07:23:21;19.92;;;9.73;;
38940;SDS011;43236;47.208;7.518;2023-02-18T07:26:09;21.60;;;11.13;;
38940;SDS011;43236;47.208;7.518;2023-02-18T07:28:58;21.20;;;11.23;;
38940;SDS011;43236;47.208;7.518;2023-02-18T07:31:45;19.52;;;11.15;;
38940;SDS011;43236;47.208;7.518;2023-02-18T07:34:32;19.67;;;11.43;;
38940;SDS011;43236;47.208;7.518;2023-02-18T07:37:21;19.33;;;11.27;;
38940;SDS011;43236;47.208;7.518;2023-02-18T07:40:08;26.10;;;12.60;;
38940;SDS011;43236;47.208;7.518;2023-02-18T07:42:56;22.90;;;11.93;;
38940;SDS011;43236;47.208;7.518;2023-02-18T07:45:43;23.73;;;12.20;;
38940;SDS011;43236;47.208;7.518;2023-02-18T07:48:30;21.30;;;11.27;;
38940;SDS011;43236;47.208;7.518;2023-02-18T07:51:17;24.58;;;11.32;;
38940;SDS011;43236;47.208;7.518;2023-02-18T07:54:05;26.65;;;11.13;;
38940;SDS011;43236;47.208;7.518;2023-02-18T07:56:52;17.50;;;10.77;;
38940;SDS011;43236;47.208;7.518;2023-02-18T07:59:40;24.83;;;11.70;;
38940;SDS011;43236;47.208;7.518;2023-02-18T08:02:27;22.65;;;11.80;;
38940;SDS011;43236;47.208;7.518;2023-02-18T08:05:14;23.17;;;12.45;;
38940;SDS011;43236;47.208;7.518;2023-02-18T08:08:01;21.90;;;11.82;;
38940;SDS011;43236;47.208;7.518;2023-02-18T08:10:50;20.30;;;11.05;;
38940;SDS011;43236;47.208;7.518;2023-02-18T08:13:38;23.95;;;12.07;;
38940;SDS011;43236;47.208;7.518;2023-02-18T08:16:26;24.58;;;12.55;;
38940;SDS011;43236;47.208;7.518;2023-02-18T08:19:13;22.10;;;11.40;;
38940;SDS011;43236;47.208;7.518;2023-02-18T08:22:01;22.58;;;11.93;;
38940;SDS011;43236;47.208;7.518;2023-02-18T08:24:48;23.92;;;11.57;;
38940;SDS011;43236;47.208;7.518;2023-02-18T08:27:36;24.55;;;11.73;;
38940;SDS011;43236;47.208;7.518;2023-02-18T08:30:24;19.60;;;10.93;;
38940;SDS011;43236;47.208;7.518;2023-02-18T08:33:11;22.73;;;12.50;;
38940;SDS011;43236;47.208;7.518;2023-02-18T08:35:58;27.33;;;12.57;;
38940;SDS011;43236;47.208;7.518;2023-02-18T08:38:45;20.38;;;11.38;;
38940;SDS011;43236;47.208;7.518;2023-02-18T08:41:32;22.02;;;11.52;;
38940;SDS011;43236;47.208;7.518;2023-02-18T08:44:21;20.58;;;11.43;;
38940;SDS011;43236;47.208;7.518;2023-02-18T08:47:08;20.52;;;11.30;;
38940;SDS011;43236;47.208;7.518;2023-02-18T08:49:55;27.67;;;12.23;;
38940;SDS011;43236;47.208;7.518;2023-02-18T08:52:42;23.27;;;11.48;;
38940;SDS011;43236;47.208;7.518;2023-02-18T08:55:29;20.13;;;10.55;;
38940;SDS011;43236;47.208;7.518;2023-02-18T08:58:17;17.73;;;9.70;;
38940;SDS011;43236;47.208;7.518;2023-02-18T09:01:07;21.17;;;10.68;;
38940;SDS011;43236;47.208;7.518;2023-02-18T09:03:55;21.15;;;10.20;;
38940;SDS011;43236;47.208;7.518;2023-02-18T09:06:42;22.33;;;10.63;;
38940;SDS011;43236;47.208;7.518;2023-02-18T09:09:31;19.08;;;9.95;;
38940;SDS011;43236;47.208;7.518;2023-02-18T09:12:18;19.27;;;9.70;;
38940;SDS011;43236;47.208;7.518;2023-02-18T09:15:05;18.25;;;9.13;;
38940;SDS011;43236;47.208;7.518;2023-02-18T09:17:54;19.95;;;8.95;;
38940;SDS011;43236;47.208;7.518;2023-02-18T09:20:41;19.15;;;8.77;;
38940;SDS011;43236;47.208;7.518;2023-02-18T09:23:28;15.50;;;7.97;;
38940;SDS011;43236;47.208;7.518;2023-02-18T09:26:17;20.60;;;8.07;;
38940;SDS011;43236;47.208;7.518;2023-02-18T09:29:07;19.98;;;8.45;;
38940;SDS011;43236;47.208;7.518;2023-02-18T09:31:58;15.32;;;8.32;;
38940;SDS011;43236;47.208;7.518;2023-02-18T09:34:47;16.13;;;7.78;;
38940;SDS011;43236;47.208;7.518;2023-02-18T09:37:34;19.10;;;8.35;;
38940;SDS011;43236;47.208;7.518;2023-02-18T09:40:23;16.00;;;7.80;;
38940;SDS011;43236;47.208;7.518;2023-02-18T09:43:13;19.00;;;10.05;;
38940;SDS011;43236;47.208;7.518;2023-02-18T09:46:11;21.17;;;8.80;;
38940;SDS011;43236;47.208;7.518;2023-02-18T09:49:05;14.18;;;7.90;;
38940;SDS011;43236;47.208;7.518;2023-02-18T09:52:01;17.93;;;8.37;;
38940;SDS011;43236;47.208;7.518;2023-02-18T09:54:51;16.35;;;8.27;;
38940;SDS011;43236;47.208;7.518;2023-02-18T09:57:39;19.08;;;8.45;;
38940;SDS011;43236;47.208;7.518;2023-02-18T10:00:30;20.33;;;7.95;;
38940;SDS011;43236;47.208;7.518;2023-02-18T10:03:20;17.88;;;8.45;;
38940;SDS011;43236;47.208;7.518;2023-02-18T10:06:10;16.98;;;8.18;;
38940;SDS011;43236;47.208;7.518;2023-02-18T10:09:03;16.90;;;7.43;;
38940;SDS011;43236;47.208;7.518;2023-02-18T10:12:01;14.13;;;6.70;;
38940;SDS011;43236;47.208;7.518;2023-02-18T10:14:59;19.08;;;6.50;;
38940;SDS011;43236;47.208;7.518;2023-02-18T10:17:46;12.80;;;6.80;;
38940;SDS011;43236;47.208;7.518;2023-02-18T10:20:34;14.25;;;7.00;;
38940;SDS011;43236;47.208;7.518;2023-02-18T10:23:21;11.23;;;6.25;;
38940;SDS011;43236;47.208;7.518;2023-02-18T10:26:14;9.57;;;5.40;;
38940;SDS011;43236;47.208;7.518;2023-02-18T10:29:05;12.52;;;6.15;;
38940;SDS011;43236;47.208;7.518;2023-02-18T10:32:03;13.27;;;5.85;;
38940;SDS011;43236;47.208;7.518;2023-02-18T10:34:53;9.30;;;5.17;;
38940;SDS011;43236;47.208;7.518;2023-02-18T10:37:48;11.35;;;4.95;;
38940;SDS011;43236;47.208;7.518;2023-02-18T10:40:47;12.73;;;5.72;;
38940;SDS011;43236;47.208;7.518;2023-02-18T10:43:45;11.15;;;5.85;;
38940;SDS011;43236;47.208;7.518;2023-02-18T10:46:42;9.65;;;5.68;;
38940;SDS011;43236;47.208;7.518;2023-02-18T10:49:40;15.50;;;6.00;;
38940;SDS011;43236;47.208;7.518;2023-02-18T10:52:44;10.50;;;5.43;;
38940;SDS011;43236;47.208;7.518;2023-02-18T10:55:36;10.10;;;5.57;;
38940;SDS011;43236;47.208;7.518;2023-02-18T10:58:27;12.65;;;5.35;;
38940;SDS011;43236;47.208;7.518;2023-02-18T11:01:19;10.27;;;5.80;;
38940;SDS011;43236;47.208;7.518;2023-02-18T11:04:10;9.75;;;5.50;;
38940;SDS011;43236;47.208;7.518;2023-02-18T11:07:01;11.98;;;5.10;;
38940;SDS011;43236;47.208;7.518;2023-02-18T11:09:51;14.15;;;5.25;;
38940;SDS011;43236;47.208;7.518;2023-02-18T11:12:42;10.52;;;5.28;;
38940;SDS011;43236;47.208;7.518;2023-02-18T11:15:31;9.65;;;4.50;;
38940;SDS011;43236;47.208;7.518;2023-02-18T11:18:25;7.97;;;4.30;;
38940;SDS011;43236;47.208;7.518;2023-02-18T11:21:19;9.43;;;4.90;;
38940;SDS011;43236;47.208;7.518;2023-02-18T11:24:14;9.00;;;4.60;;
38940;SDS011;43236;47.208;7.518;2023-02-18T11:27:03;9.45;;;4.68;;
38940;SDS011;43236;47.208;7.518;2023-02-18T11:29:55;8.63;;;4.20;;
38940;SDS011;43236;47.208;7.518;2023-02-18T11:32:46;10.18;;;5.05;;
38940;SDS011;43236;47.208;7.518;2023-02-18T11:35:38;10.45;;;4.53;;
38940;SDS011;43236;47.208;7.518;2023-02-18T11:38:26;9.25;;;4.00;;
38940;SDS011;43236;47.208;7.518;2023-02-18T11:41:15;11.23;;;4.13;;
38940;SDS011;43236;47.208;7.518;2023-02-18T11:44:06;8.00;;;3.45;;
38940;SDS011;43236;47.208;7.518;2023-02-18T11:47:04;6.90;;;3.38;;
38940;SDS011;43236;47.208;7.518;2023-02-18T11:50:00;8.93;;;2.92;;
38940;SDS011;43236;47.208;7.518;2023-02-18T11:53:16;6.35;;;2.88;;
38940;SDS011;43236;47.208;7.518;2023-02-18T11:56:15;6.70;;;3.42;;
38940;SDS011;43236;47.208;7.518;2023-02-18T11:59:04;6.68;;;3.47;;
38940;SDS011;43236;47.208;7.518;2023-02-18T12:01:52;9.27;;;3.78;;
38940;SDS011;43236;47.208;7.518;2023-02-18T12:04:44;6.15;;;2.95;;
38940;SDS011;43236;47.208;7.518;2023-02-18T12:07:35;7.80;;;4.00;;
38940;SDS011;43236;47.208;7.518;2023-02-18T12:10:30;7.93;;;3.20;;
38940;SDS011;43236;47.208;7.518;2023-02-18T12:13:23;6.53;;;3.60;;
38940;SDS011;43236;47.208;7.518;2023-02-18T12:16:17;5.87;;;3.03;;
38940;SDS011;43236;47.208;7.518;2023-02-18T12:19:32;6.60;;;2.80;;
38940;SDS011;43236;47.208;7.518;2023-02-18T12:22:34;6.43;;;2.92;;
38940;SDS011;43236;47.208;7.518;2023-02-18T12:25:31;5.38;;;2.47;;
38940;SDS011;43236;47.208;7.518;2023-02-18T12:28:32;7.60;;;2.50;;
38940;SDS011;43236;47.208;7.518;2023-02-18T12:31:53;3.67;;;2.00;;
38940;SDS011;43236;47.208;7.518;2023-02-18T12:34:57;5.72;;;2.30;;
38940;SDS011;43236;47.208;7.518;2023-02-18T12:41:31;3.45;;;1.58;;
38940;SDS011;43236;47.208;7.518;2023-02-18T12:44:42;3.33;;;1.50;;
38940;SDS011;43236;47.208;7.518;2023-02-18T12:47:41;4.75;;;1.30;;
38940;SDS011;43236;47.208;7.518;2023-02-18T12:50:53;2.45;;;0.98;;
38940;SDS011;43236;47.208;7.518;2023-02-18T12:53:58;1.77;;;0.98;;
38940;SDS011;43236;47.208;7.518;2023-02-18T12:57:28;2.30;;;0.93;;
38940;SDS011;43236;47.208;7.518;2023-02-18T13:00:37;2.60;;;0.90;;
38940;SDS011;43236;47.208;7.518;2023-02-18T13:03:40;2.80;;;1.15;;
38940;SDS011;43236;47.208;7.518;2023-02-18T13:06:47;1.98;;;1.00;;
38940;SDS011;43236;47.208;7.518;2023-02-18T13:09:56;3.75;;;1.83;;
38940;SDS011;43236;47.208;7.518;2023-02-18T13:12:54;2.47;;;1.30;;
38940;SDS011;43236;47.208;7.518;2023-02-18T13:18:37;4.43;;;1.10;;
38940;SDS011;43236;47.208;7.518;2023-02-18T13:21:26;1.40;;;0.77;;
38940;SDS011;43236;47.208;7.518;2023-02-18T13:24:16;2.38;;;1.08;;
38940;SDS011;43236;47.208;7.518;2023-02-18T13:27:13;2.88;;;0.70;;
38940;SDS011;43236;47.208;7.518;2023-02-18T13:30:13;2.17;;;0.87;;
38940;SDS011;43236;47.208;7.518;2023-02-18T13:33:07;2.20;;;0.93;;
38940;SDS011;43236;47.208;7.518;2023-02-18T13:36:01;2.45;;;1.10;;
38940;SDS011;43236;47.208;7.518;2023-02-18T13:38:56;1.92;;;1.00;;
38940;SDS011;43236;47.208;7.518;2023-02-18T13:41:50;2.30;;;0.88;;
38940;SDS011;43236;47.208;7.518;2023-02-18T13:45:03;2.25;;;1.10;;
38940;SDS011;43236;47.208;7.518;2023-02-18T13:48:22;3.20;;;1.05;;
38940;SDS011;43236;47.208;7.518;2023-02-18T13:51:13;2.88;;;0.95;;
38940;SDS011;43236;47.208;7.518;2023-02-18T13:54:03;4.18;;;1.20;;
38940;SDS011;43236;47.208;7.518;2023-02-18T13:57:00;2.13;;;1.00;;
38940;SDS011;43236;47.208;7.518;2023-02-18T13:59:49;1.88;;;0.98;;
38940;SDS011;43236;47.208;7.518;2023-02-18T14:02:54;2.70;;;1.20;;
38940;SDS011;43236;47.208;7.518;2023-02-18T14:05:43;3.75;;;1.23;;
38940;SDS011;43236;47.208;7.518;2023-02-18T14:08:32;5.95;;;1.10;;
38940;SDS011;43236;47.208;7.518;2023-02-18T14:14:38;2.05;;;1.10;;
38940;SDS011;43236;47.208;7.518;2023-02-18T14:17:36;2.15;;;0.90;;
38940;SDS011;43236;47.208;7.518;2023-02-18T14:20:32;1.77;;;1.05;;
38940;SDS011;43236;47.208;7.518;2023-02-18T14:23:39;3.30;;;1.30;;
38940;SDS011;43236;47.208;7.518;2023-02-18T14:26:28;5.45;;;1.10;;
38940;SDS011;43236;47.208;7.518;2023-02-18T14:29:19;4.05;;;1.23;;
38940;SDS011;43236;47.208;7.518;2023-02-18T14:32:15;2.80;;;1.15;;
38940;SDS011;43236;47.208;7.518;2023-02-18T14:35:18;2.65;;;1.13;;
38940;SDS011;43236;47.208;7.518;2023-02-18T14:41:33;3.75;;;0.95;;
38940;SDS011;43236;47.208;7.518;2023-02-18T14:44:33;3.28;;;1.20;;
38940;SDS011;43236;47.208;7.518;2023-02-18T14:47:34;2.17;;;1.10;;
38940;SDS011;43236;47.208;7.518;2023-02-18T14:50:34;2.50;;;1.10;;
38940;SDS011;43236;47.208;7.518;2023-02-18T14:53:23;3.25;;;1.27;;
38940;SDS011;43236;47.208;7.518;2023-02-18T14:56:13;2.75;;;1.05;;
38940;SDS011;43236;47.208;7.518;2023-02-18T14:59:04;1.95;;;0.98;;
38940;SDS011;43236;47.208;7.518;2023-02-18T15:01:53;2.33;;;1.20;;
38940;SDS011;43236;47.208;7.518;2023-02-18T15:04:41;1.83;;;1.00;;
38940;SDS011;43236;47.208;7.518;2023-02-18T15:07:30;2.38;;;0.90;;
38940;SDS011;43236;47.208;7.518;2023-02-18T15:10:17;2.42;;;1.02;;
38940;SDS011;43236;47.208;7.518;2023-02-18T15:13:04;2.50;;;1.05;;
38940;SDS011;43236;47.208;7.518;2023-02-18T15:16:00;2.08;;;0.90;;
38940;SDS011;43236;47.208;7.518;2023-02-18T15:18:51;1.70;;;0.80;;
38940;SDS011;43236;47.208;7.518;2023-02-18T15:21:41;2.13;;;0.75;;
38940;SDS011;43236;47.208;7.518;2023-02-18T15:24:30;1.60;;;0.63;;
38940;SDS011;43236;47.208;7.518;2023-02-18T15:27:19;0.82;;;0.55;;
38940;SDS011;43236;47.208;7.518;2023-02-18T15:30:12;1.55;;;0.80;;
38940;SDS011;43236;47.208;7.518;2023-02-18T15:33:09;3.13;;;0.80;;
38940;SDS011;43236;47.208;7.518;2023-02-18T15:36:00;2.90;;;0.80;;
38940;SDS011;43236;47.208;7.518;2023-02-18T15:38:48;0.80;;;0.55;;
38940;SDS011;43236;47.208;7.518;2023-02-18T15:41:35;1.00;;;0.50;;
38940;SDS011;43236;47.208;7.518;2023-02-18T15:44:23;2.97;;;0.85;;
38940;SDS011;43236;47.208;7.518;2023-02-18T15:47:12;1.50;;;0.65;;
38940;SDS011;43236;47.208;7.518;2023-02-18T15:50:03;1.67;;;0.60;;
38940;SDS011;43236;47.208;7.518;2023-02-18T15:52:52;1.15;;;0.68;;
38940;SDS011;43236;47.208;7.518;2023-02-18T15:55:41;1.95;;;0.80;;
38940;SDS011;43236;47.208;7.518;2023-02-18T15:58:31;2.17;;;0.60;;
38940;SDS011;43236;47.208;7.518;2023-02-18T16:01:25;1.30;;;0.60;;
38940;SDS011;43236;47.208;7.518;2023-02-18T16:04:13;1.40;;;0.73;;
38940;SDS011;43236;47.208;7.518;2023-02-18T16:07:04;2.63;;;0.70;;
38940;SDS011;43236;47.208;7.518;2023-02-18T16:10:16;1.85;;;0.75;;
38940;SDS011;43236;47.208;7.518;2023-02-18T16:13:05;1.90;;;0.75;;
38940;SDS011;43236;47.208;7.518;2023-02-18T16:15:52;1.38;;;0.70;;
38940;SDS011;43236;47.208;7.518;2023-02-18T16:18:40;1.98;;;0.70;;
38940;SDS011;43236;47.208;7.518;2023-02-18T16:21:31;1.35;;;0.70;;
38940;SDS011;43236;47.208;7.518;2023-02-18T16:24:26;1.60;;;0.70;;
38940;SDS011;43236;47.208;7.518;2023-02-18T16:27:17;0.90;;;0.60;;
38940;SDS011;43236;47.208;7.518;2023-02-18T16:30:08;2.03;;;0.90;;
38940;SDS011;43236;47.208;7.518;2023-02-18T16:33:01;1.08;;;0.60;;
38940;SDS011;43236;47.208;7.518;2023-02-18T16:35:48;1.85;;;0.80;;
38940;SDS011;43236;47.208;7.518;2023-02-18T16:38:35;2.67;;;0.85;;
38940;SDS011;43236;47.208;7.518;2023-02-18T16:41:24;3.42;;;0.75;;
38940;SDS011;43236;47.208;7.518;2023-02-18T16:44:11;2.75;;;1.00;;
38940;SDS011;43236;47.208;7.518;2023-02-18T16:46:59;2.25;;;0.85;;
38940;SDS011;43236;47.208;7.518;2023-02-18T16:49:47;2.67;;;0.90;;
38940;SDS011;43236;47.208;7.518;2023-02-18T16:52:36;4.05;;;1.10;;
38940;SDS011;43236;47.208;7.518;2023-02-18T16:55:24;4.82;;;1.15;;
38940;SDS011;43236;47.208;7.518;2023-02-18T16:58:13;2.47;;;1.10;;
38940;SDS011;43236;47.208;7.518;2023-02-18T17:01:00;1.90;;;0.88;;
38940;SDS011;43236;47.208;7.518;2023-02-18T17:03:47;3.13;;;1.30;;
38940;SDS011;43236;47.208;7.518;2023-02-18T17:06:35;3.28;;;1.15;;
38940;SDS011;43236;47.208;7.518;2023-02-18T17:09:22;2.42;;;0.90;;
38940;SDS011;43236;47.208;7.518;2023-02-18T17:12:11;4.45;;;2.05;;
38940;SDS011;43236;47.208;7.518;2023-02-18T17:15:00;14.40;;;5.07;;
38940;SDS011;43236;47.208;7.518;2023-02-18T17:17:47;65.05;;;22.85;;
38940;SDS011;43236;47.208;7.518;2023-02-18T17:20:34;22.50;;;8.27;;
38940;SDS011;43236;47.208;7.518;2023-02-18T17:23:22;90.55;;;32.83;;
38940;SDS011;43236;47.208;7.518;2023-02-18T17:26:16;36.08;;;14.38;;